createdAt,value
2019-01-13T00:00:24.554Z,4.19
2019-01-13T00:03:29.295Z,4.16
2019-01-13T00:06:33.801Z,4.13
2019-01-13T00:09:38.229Z,4.23
2019-01-13T00:12:43.068Z,4.29
2019-01-13T00:15:47.495Z,4.41
2019-01-13T00:18:52.255Z,4.59
2019-01-13T00:21:56.667Z,4.62
2019-01-13T00:25:01.100Z,4.54
2019-01-13T00:28:05.912Z,4.52
2019-01-13T00:31:10.642Z,4.59
2019-01-13T00:34:15.370Z,4.53
2019-01-13T00:37:24.098Z,4.69
2019-01-13T00:40:30.660Z,4.64
2019-01-13T00:43:37.491Z,4.68
2019-01-13T00:46:42.109Z,4.61
2019-01-13T00:49:46.981Z,4.62
2019-01-13T00:52:51.970Z,4.78
2019-01-13T00:55:57.138Z,4.89
2019-01-13T00:59:02.430Z,4.87
2019-01-13T01:02:07.469Z,4.90
2019-01-13T01:05:14.351Z,4.90
2019-01-13T01:08:21.955Z,5.03
2019-01-13T01:11:27.450Z,5.12
2019-01-13T01:14:31.904Z,5.08
2019-01-13T01:17:36.341Z,5.08
2019-01-13T01:20:40.771Z,5.11
2019-01-13T01:23:45.203Z,5.04
2019-01-13T01:26:49.632Z,4.94
2019-01-13T01:29:54.345Z,4.98
2019-01-13T01:32:58.786Z,5.07
2019-01-13T01:36:03.213Z,4.98
2019-01-13T01:39:10.788Z,4.95
2019-01-13T01:42:15.522Z,5.01
2019-01-13T01:45:21.165Z,5.00
2019-01-13T01:48:25.603Z,5.01
2019-01-13T01:51:30.103Z,5.07
2019-01-13T01:54:34.540Z,5.02
2019-01-13T01:57:39.300Z,5.08
2019-01-13T02:00:43.735Z,5.06
2019-01-13T02:03:48.430Z,5.19
2019-01-13T02:06:53.161Z,5.12
2019-01-13T02:09:57.601Z,5.23
2019-01-13T02:13:02.095Z,5.21
2019-01-13T02:16:06.600Z,5.23
2019-01-13T02:19:11.040Z,5.19
2019-01-13T02:22:18.492Z,5.28
2019-01-13T02:25:26.405Z,5.44
2019-01-13T02:28:30.832Z,5.62
2019-01-13T02:31:35.269Z,5.52
2019-01-13T02:34:40.045Z,5.61
2019-01-13T02:37:44.875Z,5.71
2019-01-13T02:40:49.601Z,5.75
2019-01-13T02:43:54.039Z,5.81
2019-01-13T02:46:58.759Z,5.85
2019-01-13T02:50:05.030Z,5.88
2019-01-13T02:53:09.452Z,5.90
2019-01-13T02:56:14.180Z,5.92
2019-01-13T02:59:18.616Z,5.87
2019-01-13T03:02:28.451Z,5.89
2019-01-13T03:05:32.867Z,5.86
2019-01-13T03:08:37.618Z,5.86
2019-01-13T03:11:42.052Z,5.83
2019-01-13T03:14:46.488Z,5.87
2019-01-13T03:17:52.113Z,5.90
2019-01-13T03:20:56.554Z,5.96
2019-01-13T03:24:03.102Z,5.80
2019-01-13T03:27:09.005Z,5.78
2019-01-13T03:30:22.447Z,5.78
2019-01-13T03:33:27.692Z,5.85
2019-01-13T03:36:32.126Z,5.82
2019-01-13T03:39:37.015Z,5.86
2019-01-13T03:42:41.724Z,5.89
2019-01-13T03:45:46.162Z,5.72
2019-01-13T03:48:50.886Z,5.80
2019-01-13T03:51:55.847Z,5.86
2019-01-13T03:55:00.410Z,5.94
2019-01-13T03:58:04.820Z,5.94
2019-01-13T04:01:09.255Z,5.94
2019-01-13T04:04:14.031Z,5.82
2019-01-13T04:07:18.758Z,5.85
2019-01-13T04:10:23.259Z,5.89
2019-01-13T04:13:27.680Z,5.86
2019-01-13T04:16:32.110Z,5.97
2019-01-13T04:19:36.544Z,5.98
2019-01-13T04:22:41.282Z,5.98
2019-01-13T04:25:45.775Z,6.10
2019-01-13T04:28:50.202Z,6.17
2019-01-13T04:31:54.962Z,6.21
2019-01-13T04:34:59.386Z,6.31
2019-01-13T04:38:04.215Z,6.16
2019-01-13T04:41:08.661Z,6.18
2019-01-13T04:44:13.375Z,6.11
2019-01-13T04:47:18.104Z,6.13
2019-01-13T04:50:22.647Z,6.13
2019-01-13T04:53:27.364Z,6.10
2019-01-13T04:56:32.095Z,6.15
2019-01-13T04:59:36.527Z,6.24
2019-01-13T05:02:41.026Z,6.21
2019-01-13T05:05:45.450Z,6.27
2019-01-13T05:08:50.192Z,6.30
2019-01-13T05:11:54.925Z,6.18
2019-01-13T05:14:59.350Z,6.19
2019-01-13T05:18:04.185Z,6.17
2019-01-13T05:21:08.914Z,6.15
2019-01-13T05:24:13.347Z,6.12
2019-01-13T05:27:17.778Z,6.22
2019-01-13T05:30:22.873Z,6.43
2019-01-13T05:33:27.358Z,6.47
2019-01-13T05:36:32.056Z,6.46
2019-01-13T05:39:36.482Z,6.44
2019-01-13T05:42:40.919Z,6.46
2019-01-13T05:45:45.344Z,6.42
2019-01-13T05:48:50.060Z,6.42
2019-01-13T05:51:54.788Z,6.51
2019-01-13T05:54:59.218Z,6.51
2019-01-13T05:58:03.654Z,6.48
2019-01-13T06:01:08.071Z,6.52
2019-01-13T06:04:12.790Z,6.45
2019-01-13T06:07:17.225Z,6.47
2019-01-13T06:10:22.247Z,6.36
2019-01-13T06:13:26.982Z,6.41
2019-01-13T06:16:31.408Z,6.41
2019-01-13T06:19:35.844Z,6.47
2019-01-13T06:22:40.334Z,6.49
2019-01-13T06:25:44.758Z,6.51
2019-01-13T06:28:49.512Z,6.42
2019-01-13T06:31:56.450Z,6.43
2019-01-13T06:35:00.411Z,6.46
2019-01-13T06:38:06.254Z,6.51
2019-01-13T06:41:10.850Z,6.51
2019-01-13T06:44:15.619Z,6.44
2019-01-13T06:47:20.046Z,6.46
2019-01-13T06:50:25.083Z,6.45
2019-01-13T06:53:29.514Z,6.41
2019-01-13T06:56:33.937Z,6.33
2019-01-13T06:59:38.373Z,6.36
2019-01-13T07:02:43.123Z,6.28
2019-01-13T07:05:47.815Z,6.43
2019-01-13T07:08:52.245Z,6.24
2019-01-13T07:11:56.668Z,6.30
2019-01-13T07:15:01.103Z,6.37
2019-01-13T07:18:05.691Z,6.42
2019-01-13T07:21:10.442Z,6.43
2019-01-13T07:24:14.881Z,6.30
2019-01-13T07:27:19.308Z,6.12
2019-01-13T07:30:24.120Z,6.15
2019-01-13T07:33:28.559Z,6.12
2019-01-13T07:36:33.286Z,6.09
2019-01-13T07:39:37.750Z,6.13
2019-01-13T07:42:42.240Z,6.16
2019-01-13T07:45:46.675Z,6.20
2019-01-13T07:48:51.387Z,6.29
2019-01-13T07:51:55.813Z,6.25
2019-01-13T07:55:00.539Z,6.21
2019-01-13T07:58:06.087Z,6.17
2019-01-13T08:01:10.593Z,6.23
2019-01-13T08:04:15.030Z,6.21
2019-01-13T08:07:19.452Z,6.24
2019-01-13T08:10:23.954Z,6.22
2019-01-13T08:13:28.378Z,6.17
2019-01-13T08:16:33.167Z,6.20
2019-01-13T08:19:37.991Z,6.19
2019-01-13T08:22:42.487Z,6.09
2019-01-13T08:25:46.947Z,6.11
2019-01-13T08:28:51.439Z,6.13
2019-01-13T08:31:55.876Z,6.05
2019-01-13T08:35:00.314Z,6.04
2019-01-13T08:38:04.807Z,5.96
2019-01-13T08:41:09.552Z,6.02
2019-01-13T08:44:13.971Z,6.02
2019-01-13T08:47:18.712Z,6.04
2019-01-13T08:50:23.354Z,6.13
2019-01-13T08:53:27.778Z,6.02
2019-01-13T08:56:32.267Z,6.00
2019-01-13T08:59:36.698Z,6.03
2019-01-13T09:02:41.452Z,6.05
2019-01-13T09:05:45.890Z,5.96
2019-01-13T09:08:50.591Z,6.02
2019-01-13T09:11:55.427Z,6.00
2019-01-13T09:15:00.166Z,5.93
2019-01-13T09:18:04.744Z,5.85
2019-01-13T09:21:09.511Z,5.81
2019-01-13T09:24:13.949Z,5.87
2019-01-13T09:27:18.668Z,5.82
2019-01-13T09:30:28.923Z,5.80
2019-01-13T09:33:33.344Z,5.77
2019-01-13T09:36:38.081Z,5.69
2019-01-13T09:39:42.514Z,5.84
2019-01-13T09:42:46.945Z,5.84
2019-01-13T09:45:51.662Z,5.78
2019-01-13T09:48:56.394Z,5.78
2019-01-13T09:52:01.123Z,5.91
2019-01-13T09:55:10.400Z,5.74
2019-01-13T09:58:14.841Z,5.54
2019-01-13T10:01:19.519Z,5.58
2019-01-13T10:04:24.251Z,5.58
2019-01-13T10:07:28.975Z,5.64
2019-01-13T10:10:33.710Z,5.58
2019-01-13T10:13:38.136Z,5.63
2019-01-13T10:16:42.588Z,5.70
2019-01-13T10:19:47.012Z,5.83
2019-01-13T10:22:51.714Z,5.75
2019-01-13T10:25:56.141Z,5.78
2019-01-13T10:29:00.561Z,5.78
2019-01-13T10:32:05.713Z,5.74
2019-01-13T10:35:11.455Z,5.75
2019-01-13T10:38:15.887Z,5.67
2019-01-13T10:41:20.599Z,5.76
2019-01-13T10:44:25.031Z,5.80
2019-01-13T10:47:29.772Z,5.73
2019-01-13T10:50:34.205Z,5.79
2019-01-13T10:53:38.912Z,5.81
2019-01-13T10:56:43.351Z,5.84
2019-01-13T10:59:47.779Z,5.76
2019-01-13T11:02:52.503Z,5.78
2019-01-13T11:05:56.933Z,5.74
2019-01-13T11:09:01.422Z,5.77
2019-01-13T11:12:05.930Z,5.88
2019-01-13T11:15:21.277Z,5.81
2019-01-13T11:18:21.058Z,5.85
2019-01-13T11:21:25.497Z,5.89
2019-01-13T11:24:29.926Z,5.84
2019-01-13T11:27:39.909Z,5.91
2019-01-13T11:30:44.301Z,5.93
2019-01-13T11:33:48.734Z,5.91
2019-01-13T11:36:53.164Z,5.88
2019-01-13T11:39:57.592Z,5.88
2019-01-13T11:43:02.032Z,5.86
2019-01-13T11:46:06.811Z,5.87
2019-01-13T11:49:11.248Z,5.81
2019-01-13T11:52:15.677Z,5.87
2019-01-13T11:55:20.238Z,5.82
2019-01-13T11:58:24.672Z,5.95
2019-01-13T12:01:29.096Z,5.97
2019-01-13T12:04:33.860Z,5.95
2019-01-13T12:07:38.292Z,5.92
2019-01-13T12:10:43.033Z,5.94
2019-01-13T12:13:47.949Z,5.91
2019-01-13T12:16:52.452Z,5.97
2019-01-13T12:19:56.890Z,5.92
2019-01-13T12:23:01.324Z,5.96
2019-01-13T12:26:06.072Z,6.05
2019-01-13T12:29:10.513Z,5.95
2019-01-13T12:32:15.826Z,5.95
2019-01-13T12:35:21.933Z,5.80
2019-01-13T12:38:26.824Z,5.86
2019-01-13T12:41:31.253Z,5.92
2019-01-13T12:44:35.977Z,5.97
2019-01-13T12:47:40.941Z,5.91
2019-01-13T12:50:45.746Z,5.96
2019-01-13T12:53:50.176Z,6.03
2019-01-13T12:56:54.606Z,5.83
2019-01-13T12:59:59.044Z,5.73
2019-01-13T13:03:03.776Z,5.80
2019-01-13T13:06:08.205Z,5.82
2019-01-13T13:09:12.636Z,5.85
2019-01-13T13:12:17.328Z,5.88
2019-01-13T13:15:21.766Z,5.89
2019-01-13T13:18:26.198Z,6.01
2019-01-13T13:21:30.690Z,5.99
2019-01-13T13:24:35.123Z,6.11
2019-01-13T13:27:39.854Z,6.16
2019-01-13T13:30:44.581Z,6.20
2019-01-13T13:33:49.315Z,6.32
2019-01-13T13:36:54.056Z,6.61
2019-01-13T13:39:58.471Z,6.79
2019-01-13T13:43:02.928Z,7.10
2019-01-13T13:46:07.343Z,7.44
2019-01-13T13:49:11.778Z,7.51
2019-01-13T13:52:16.576Z,7.61
2019-01-13T13:55:21.082Z,7.84
2019-01-13T13:58:25.825Z,7.94
2019-01-13T14:01:30.250Z,7.92
2019-01-13T14:04:34.982Z,7.95
2019-01-13T14:07:39.405Z,8.00
2019-01-13T14:10:44.279Z,8.15
2019-01-13T14:13:48.970Z,8.11
2019-01-13T14:16:53.395Z,8.14
2019-01-13T14:19:57.824Z,8.16
2019-01-13T14:23:02.250Z,8.16
2019-01-13T14:26:06.674Z,8.20
2019-01-13T14:29:11.392Z,8.34
2019-01-13T14:32:15.827Z,8.33
2019-01-13T14:35:20.655Z,8.28
2019-01-13T14:38:25.376Z,8.30
2019-01-13T14:41:29.805Z,8.36
2019-01-13T14:44:34.548Z,8.44
2019-01-13T14:47:39.266Z,8.29
2019-01-13T14:50:43.996Z,8.25
2019-01-13T14:53:48.420Z,8.35
2019-01-13T14:56:52.853Z,8.38
2019-01-13T14:59:57.292Z,8.30
2019-01-13T15:03:01.880Z,8.18
2019-01-13T15:06:06.626Z,8.15
2019-01-13T15:09:11.065Z,8.19
2019-01-13T15:12:15.785Z,8.25
2019-01-13T15:15:20.222Z,8.14
2019-01-13T15:18:24.645Z,8.20
2019-01-13T15:21:29.084Z,8.16
2019-01-13T15:24:33.783Z,8.22
2019-01-13T15:27:38.509Z,8.31
2019-01-13T15:30:42.937Z,8.32
2019-01-13T15:33:47.665Z,8.31
2019-01-13T15:36:52.099Z,8.26
2019-01-13T15:39:56.836Z,8.25
2019-01-13T15:43:01.321Z,8.21
2019-01-13T15:46:06.076Z,8.21
2019-01-13T15:49:10.506Z,8.23
2019-01-13T15:52:14.951Z,8.37
2019-01-13T15:55:19.616Z,8.37
2019-01-13T15:58:24.297Z,8.31
2019-01-13T16:01:28.730Z,8.32
2019-01-13T16:04:33.154Z,8.27
2019-01-13T16:07:37.962Z,8.16
2019-01-13T16:10:42.396Z,8.14
2019-01-13T16:13:46.824Z,8.19
2019-01-13T16:16:51.253Z,8.23
2019-01-13T16:19:55.686Z,8.29
2019-01-13T16:23:00.389Z,8.25
2019-01-13T16:26:05.223Z,8.21
2019-01-13T16:29:09.953Z,8.25
2019-01-13T16:32:14.391Z,8.25
2019-01-13T16:35:18.816Z,8.22
2019-01-13T16:38:23.535Z,8.21
2019-01-13T16:41:28.262Z,8.28
2019-01-13T16:44:32.684Z,8.21
2019-01-13T16:47:37.186Z,8.32
2019-01-13T16:50:41.963Z,8.26
2019-01-13T16:53:46.671Z,8.31
2019-01-13T16:56:51.405Z,8.23
2019-01-13T16:59:57.093Z,8.31
2019-01-13T17:03:01.721Z,8.45
2019-01-13T17:06:06.419Z,8.29
2019-01-13T17:09:11.716Z,8.42
2019-01-13T17:12:16.513Z,8.51
2019-01-13T17:15:27.869Z,8.46
2019-01-13T17:18:32.610Z,8.59
2019-01-13T17:21:37.042Z,8.60
2019-01-13T17:24:41.470Z,8.56
2019-01-13T17:27:45.917Z,8.66
2019-01-13T17:30:50.613Z,8.69
2019-01-13T17:33:55.362Z,8.69
2019-01-13T17:36:59.808Z,8.65
2019-01-13T17:40:07.703Z,8.66
2019-01-13T17:43:12.151Z,8.65
2019-01-13T17:46:16.589Z,8.73
2019-01-13T17:49:21.013Z,8.66
2019-01-13T17:52:25.774Z,8.63
2019-01-13T17:55:31.366Z,8.70
2019-01-13T17:58:35.828Z,8.67
2019-01-13T18:01:40.717Z,8.72
2019-01-13T18:04:45.109Z,8.76
2019-01-13T18:07:49.850Z,8.78
2019-01-13T18:10:54.685Z,8.74
2019-01-13T18:13:59.108Z,8.74
2019-01-13T18:17:06.502Z,8.76
2019-01-13T18:20:17.423Z,8.84
2019-01-13T18:23:21.861Z,8.85
2019-01-13T18:26:26.629Z,8.76
2019-01-13T18:29:31.057Z,8.75
2019-01-13T18:32:35.796Z,8.77
2019-01-13T18:35:40.241Z,8.82
2019-01-13T18:38:44.912Z,8.81
2019-01-13T18:41:49.391Z,8.75
2019-01-13T18:44:53.811Z,8.78
2019-01-13T18:47:58.328Z,8.76
2019-01-13T18:51:02.766Z,8.83
2019-01-13T18:54:07.276Z,8.84
2019-01-13T18:57:11.988Z,8.84
2019-01-13T19:00:23.056Z,8.80
2019-01-13T19:03:28.180Z,8.85
2019-01-13T19:06:32.721Z,8.90
2019-01-13T19:09:37.182Z,8.88
2019-01-13T19:12:41.699Z,8.88
2019-01-13T19:15:50.043Z,8.93
2019-01-13T19:18:56.337Z,8.92
2019-01-13T19:22:01.123Z,8.93
2019-01-13T19:25:10.975Z,8.98
2019-01-13T19:28:30.778Z,8.95
2019-01-13T19:31:35.991Z,9.03
2019-01-13T19:34:40.756Z,9.07
2019-01-13T19:37:45.228Z,9.12
2019-01-13T19:40:49.644Z,9.14
2019-01-13T19:43:54.146Z,9.12
2019-01-13T19:46:58.842Z,9.17
2019-01-13T19:50:05.080Z,9.15
2019-01-13T19:53:09.893Z,9.12
2019-01-13T19:56:14.332Z,9.18
2019-01-13T19:59:19.098Z,9.23
2019-01-13T20:02:23.532Z,9.18
2019-01-13T20:05:28.354Z,9.23
2019-01-13T20:08:32.790Z,9.19
2019-01-13T20:11:37.215Z,9.10
2019-01-13T20:14:41.653Z,8.98
2019-01-13T20:17:46.483Z,8.88
2019-01-13T20:20:51.197Z,8.84
2019-01-13T20:23:56.131Z,8.80
2019-01-13T20:27:00.605Z,8.71
2019-01-13T20:30:12.851Z,8.72
2019-01-13T20:33:17.370Z,8.68
2019-01-13T20:36:21.862Z,8.57
2019-01-13T20:39:26.292Z,8.61
2019-01-13T20:42:30.776Z,8.61
2019-01-13T20:45:41.073Z,8.61
2019-01-13T20:48:45.779Z,8.57
2019-01-13T20:51:50.502Z,8.60
2019-01-13T20:54:55.235Z,8.66
2019-01-13T20:58:00.023Z,8.61
2019-01-13T21:01:04.397Z,8.55
2019-01-13T21:04:08.834Z,8.56
2019-01-13T21:07:13.314Z,8.58
2019-01-13T21:10:20.332Z,8.56
2019-01-13T21:13:24.771Z,8.51
2019-01-13T21:16:29.295Z,8.56
2019-01-13T21:19:33.729Z,8.46
2019-01-13T21:22:38.289Z,8.44
2019-01-13T21:25:43.054Z,8.52
2019-01-13T21:28:47.573Z,8.48
2019-01-13T21:31:52.005Z,8.44
2019-01-13T21:34:56.756Z,8.40
2019-01-13T21:38:01.466Z,8.35
2019-01-13T21:41:06.197Z,8.32
2019-01-13T21:44:11.000Z,8.27
2019-01-13T21:47:15.414Z,8.23
2019-01-13T21:50:25.665Z,8.28
2019-01-13T21:53:30.089Z,8.23
2019-01-13T21:56:34.772Z,8.24
2019-01-13T21:59:39.207Z,8.24
2019-01-13T22:02:43.922Z,8.30
2019-01-13T22:05:48.668Z,8.27
2019-01-13T22:08:56.166Z,8.32
2019-01-13T22:11:59.855Z,8.34
2019-01-13T22:15:05.631Z,8.34
2019-01-13T22:18:10.134Z,8.33
2019-01-13T22:21:14.575Z,8.34
2019-01-13T22:24:19.312Z,8.33
2019-01-13T22:27:23.726Z,8.37
2019-01-13T22:30:28.157Z,8.41
2019-01-13T22:33:32.590Z,8.42
2019-01-13T22:36:37.305Z,8.46
2019-01-13T22:39:41.727Z,8.49
2019-01-13T22:42:46.969Z,8.39
2019-01-13T22:45:51.420Z,8.37
2019-01-13T22:48:55.905Z,8.42
2019-01-13T22:52:00.632Z,8.30
2019-01-13T22:55:08.423Z,8.27
2019-01-13T22:58:12.856Z,8.24
2019-01-13T23:01:23.881Z,8.23
2019-01-13T23:04:28.451Z,8.11
2019-01-13T23:07:32.956Z,8.12
2019-01-13T23:10:37.741Z,8.16
2019-01-13T23:13:42.164Z,8.14
2019-01-13T23:16:46.876Z,8.19
2019-01-13T23:19:51.613Z,8.19
2019-01-13T23:22:56.039Z,8.14
2019-01-13T23:26:00.473Z,8.12
2019-01-13T23:29:06.543Z,8.08
2019-01-13T23:32:10.980Z,8.00
2019-01-13T23:35:15.673Z,7.72
2019-01-13T23:38:20.104Z,7.52
2019-01-13T23:41:24.830Z,7.25
2019-01-13T23:44:29.556Z,7.15
2019-01-13T23:47:34.290Z,7.05
2019-01-13T23:50:39.015Z,7.10
2019-01-13T23:53:43.448Z,7.19
2019-01-13T23:56:47.879Z,7.21
2019-01-13T23:59:52.595Z,7.22
